Time;durP1;ratioP1;P1;durP2;ratioP2;P2;SDS_P1;SDS_P2;PMS_P1;PMS_P2;Temp;Humidity;BMP_temperature;BMP_pressure;BME280_temperature;BME280_humidity;BME280_pressure;Samples;Min_cycle;Max_cycle;Signal;HPM_P1;HPM_P2
2022/08/21 00:00:16;;;;;;;;;;;;;;;23.26;53.56;95753.56;10323448;28;2340;-53
2022/08/21 00:05:17;;;;;;;;;;;;;;;23.26;53.81;95756.19;10322217;28;2257;-53
2022/08/21 00:10:18;;;;;;;;;;;;;;;23.26;53.50;95756.19;10321902;28;2316;-54
2022/08/21 00:15:19;;;;;;;;;;;;;;;23.27;53.88;95754.31;10321431;28;2352;-53
2022/08/21 00:20:20;;;;;;;;;;;;;;;23.27;53.61;95756.97;10322683;28;2316;-52
2022/08/21 00:25:20;;;;;;;;;;;;;;;23.26;53.49;95752.75;10322649;28;2379;-50
2022/08/21 00:30:21;;;;;;;;;;;;;;;23.27;53.38;95756.97;10322796;28;2428;-51
2022/08/21 00:35:26;;;;;;;;;;;;;;;23.27;53.47;95751.66;10320995;28;2856;-52
2022/08/21 00:40:28;;;;;;;;;;;;;;;23.26;53.45;95750.13;10320688;28;2395;-52
2022/08/21 00:45:29;;;;;;;;;;;;;;;23.27;53.45;95751.66;10321071;28;2431;-54
2022/08/21 00:50:31;;;;;;;;;;;;;;;23.26;53.49;95747.47;10318933;28;2344;-52
2022/08/21 00:55:32;;;;;;;;;;;;;;;23.25;53.32;95751.19;10317711;28;2268;-53
2022/08/21 01:00:33;;;;;;;;;;;;;;;23.25;53.34;95746.69;10321822;28;2320;-54
2022/08/21 01:05:34;;;;;;;;;;;;;;;23.26;53.41;95745.63;10314819;28;1890;-52
2022/08/21 01:10:35;;;;;;;;;;;;;;;23.26;53.50;95734.25;10323036;28;2375;-50
2022/08/21 01:15:36;;;;;;;;;;;;;;;23.25;53.34;95730.81;10334615;28;2312;-51
2022/08/21 01:20:36;;;;;;;;;;;;;;;23.25;53.16;95730.81;10324689;28;1929;-51
2022/08/21 01:25:36;;;;;;;;;;;;;;;23.26;53.06;95731.59;10328354;28;2432;-51
2022/08/21 01:30:37;;;;;;;;;;;;;;;23.26;53.35;95726.31;10328371;28;2352;-51
2022/08/21 01:35:37;;;;;;;;;;;;;;;23.25;53.07;95724.72;10327830;28;2416;-53
2022/08/21 01:40:38;;;;;;;;;;;;;;;23.25;53.06;95724.72;10327581;28;2280;-49
2022/08/21 01:45:38;;;;;;;;;;;;;;;23.25;53.02;95727.38;10328859;28;2452;-51
2022/08/21 01:50:39;;;;;;;;;;;;;;;23.25;53.06;95733.47;10325624;28;2320;-50
2022/08/21 01:55:39;;;;;;;;;;;;;;;23.25;53.10;95724.72;10328257;28;2372;-51
2022/08/21 02:00:39;;;;;;;;;;;;;;;23.25;52.87;95714.16;10338020;28;2358;-53
2022/08/21 02:05:39;;;;;;;;;;;;;;;23.26;53.07;95715.72;10325462;28;2292;-54
2022/08/21 02:10:40;;;;;;;;;;;;;;;23.23;52.93;95698.59;10321571;28;2384;-52
2022/08/21 02:15:41;;;;;;;;;;;;;;;23.24;52.83;95707.31;10328368;28;2324;-52
2022/08/21 02:20:42;;;;;;;;;;;;;;;23.24;53.07;95709.94;10325468;28;2347;-53
2022/08/21 02:25:42;;;;;;;;;;;;;;;23.23;52.86;95703.88;10326498;28;2012;-52
2022/08/21 02:30:43;;;;;;;;;;;;;;;23.24;52.80;95707.31;10324538;28;2454;-53
2022/08/21 02:35:44;;;;;;;;;;;;;;;23.25;52.71;95703.56;10325944;28;2467;-53
2022/08/21 02:40:45;;;;;;;;;;;;;;;23.25;52.87;95711.50;10326088;28;2381;-53
2022/08/21 02:45:46;;;;;;;;;;;;;;;23.23;52.66;95700.44;10326699;28;2288;-53
2022/08/21 02:50:56;;;;;;;;;;;;;;;23.23;52.63;95700.44;10325212;28;2353;-54
2022/08/21 02:55:57;;;;;;;;;;;;;;;23.24;52.57;95694.09;10323569;28;2364;-52
2022/08/21 03:00:58;;;;;;;;;;;;;;;23.23;52.66;95695.16;10321764;28;2293;-52
2022/08/21 03:05:58;;;;;;;;;;;;;;;23.23;52.68;95705.72;10325112;28;1888;-53
2022/08/21 03:11:00;;;;;;;;;;;;;;;23.22;52.70;95704.16;10323053;28;2308;-54
2022/08/21 03:16:00;;;;;;;;;;;;;;;23.23;52.62;95706.50;10324941;28;2300;-53
2022/08/21 03:21:01;;;;;;;;;;;;;;;23.22;52.72;95707.59;10321267;28;2316;-50
2022/08/21 03:26:01;;;;;;;;;;;;;;;23.22;52.46;95704.97;10324185;28;2323;-52
2022/08/21 03:31:02;;;;;;;;;;;;;;;23.22;52.41;95704.97;10319802;28;2487;-53
2022/08/21 03:36:04;;;;;;;;;;;;;;;23.22;52.54;95704.16;10322669;28;2288;-51
2022/08/21 03:41:04;;;;;;;;;;;;;;;23.22;52.41;95704.16;10323072;28;1925;-53
2022/08/21 03:46:05;;;;;;;;;;;;;;;23.23;52.36;95708.38;10322180;28;1941;-54
2022/08/21 03:51:06;;;;;;;;;;;;;;;23.22;52.49;95709.47;10324411;28;2376;-51
2022/08/21 03:56:06;;;;;;;;;;;;;;;23.21;52.57;95715.81;10319969;28;2332;-52
2022/08/21 04:01:06;;;;;;;;;;;;;;;23.22;52.49;95704.16;10322399;28;2504;-54
2022/08/21 04:06:07;;;;;;;;;;;;;;;23.22;52.42;95720.03;10319735;28;1986;-54
2022/08/21 04:11:09;;;;;;;;;;;;;;;23.21;52.30;95715.81;10319251;28;2328;-53
2022/08/21 04:16:10;;;;;;;;;;;;;;;23.20;52.29;95722.19;10323608;28;2288;-54
2022/08/21 04:21:10;;;;;;;;;;;;;;;23.20;52.45;95717.69;10323544;28;2272;-54
2022/08/21 04:26:10;;;;;;;;;;;;;;;23.20;52.53;95722.19;10321272;28;2426;-53
2022/08/21 04:31:11;;;;;;;;;;;;;;;23.19;52.35;95736.47;10321015;28;2392;-53
2022/08/21 04:36:11;;;;;;;;;;;;;;;23.20;52.43;95736.19;10329134;28;1949;-52
2022/08/21 04:41:12;;;;;;;;;;;;;;;23.20;52.33;95740.69;10327530;28;2273;-53
2022/08/21 04:46:12;;;;;;;;;;;;;;;23.19;52.12;95747.84;10322549;28;2395;-53
2022/08/21 04:51:12;;;;;;;;;;;;;;;23.20;52.20;95748.63;10326907;28;2312;-54
2022/08/21 04:56:15;;;;;;;;;;;;;;;23.20;52.27;95751.28;10326626;28;2345;-52
2022/08/21 05:01:16;;;;;;;;;;;;;;;23.19;52.08;95761.06;10328814;28;2536;-51
2022/08/21 05:06:17;;;;;;;;;;;;;;;23.19;51.91;95758.41;10327937;28;2272;-52
2022/08/21 05:11:17;;;;;;;;;;;;;;;23.20;52.06;95756.56;10331233;28;2302;-55
2022/08/21 05:16:18;;;;;;;;;;;;;;;23.18;52.01;95748.13;10329395;28;2348;-51
2022/08/21 05:21:18;;;;;;;;;;;;;;;23.19;51.83;95752.34;10326773;28;2276;-49
2022/08/21 05:26:18;;;;;;;;;;;;;;;23.19;51.92;95752.34;10326916;28;1886;-55
2022/08/21 05:31:18;;;;;;;;;;;;;;;23.19;51.90;95755.78;10327826;28;2344;-53
2022/08/21 05:36:19;;;;;;;;;;;;;;;23.19;51.91;95762.91;10329945;28;2337;-52
2022/08/21 05:41:19;;;;;;;;;;;;;;;23.19;51.98;95769.00;10329007;28;2327;-54
2022/08/21 05:46:19;;;;;;;;;;;;;;;23.19;51.80;95766.34;10330727;28;1948;-53
2022/08/21 05:51:20;;;;;;;;;;;;;;;23.21;52.00;95774.00;10324038;28;2704;-54
2022/08/21 05:56:21;;;;;;;;;;;;;;;23.20;52.12;95785.66;10327610;28;2328;-55
2022/08/21 06:01:21;;;;;;;;;;;;;;;23.20;52.33;95772.44;10328577;28;2540;-50
2022/08/21 06:06:22;;;;;;;;;;;;;;;23.20;52.20;95769.78;10324731;28;2351;-52
2022/08/21 06:11:22;;;;;;;;;;;;;;;23.20;52.08;95777.72;10323092;28;2360;-49
2022/08/21 06:16:22;;;;;;;;;;;;;;;23.19;51.97;95779.56;10323505;28;2383;-52
2022/08/21 06:21:23;;;;;;;;;;;;;;;23.19;52.14;95776.94;10326113;28;1868;-55
2022/08/21 06:26:23;;;;;;;;;;;;;;;23.21;52.04;95776.63;10323743;28;1885;-52
2022/08/21 06:31:24;;;;;;;;;;;;;;;23.19;52.00;95771.63;10320763;28;2293;-54
2022/08/21 06:36:24;;;;;;;;;;;;;;;23.21;52.07;95777.44;10323838;28;2386;-53
2022/08/21 06:41:25;;;;;;;;;;;;;;;23.21;51.89;95774.00;10323789;28;2372;-52
2022/08/21 06:46:26;;;;;;;;;;;;;;;23.20;51.86;95773.22;10323713;28;2364;-53
2022/08/21 06:51:26;;;;;;;;;;;;;;;23.20;52.08;95770.56;10323255;28;2332;-54
2022/08/21 06:56:26;;;;;;;;;;;;;;;23.22;52.23;95770.28;10304362;28;2366;-52
2022/08/21 07:01:27;;;;;;;;;;;;;;;23.21;52.06;95764.19;10324637;28;2421;-52
2022/08/21 07:06:27;;;;;;;;;;;;;;;23.21;51.75;95758.13;10324275;28;2336;-54
2022/08/21 07:11:27;;;;;;;;;;;;;;;23.18;51.65;95762.16;10320786;28;2269;-54
2022/08/21 07:16:28;;;;;;;;;;;;;;;23.19;51.73;95757.63;10322952;28;2381;-50
2022/08/21 07:21:28;;;;;;;;;;;;;;;23.19;51.84;95760.28;10321418;28;2273;-54
2022/08/21 07:26:28;;;;;;;;;;;;;;;23.20;52.00;95759.22;10322697;28;1913;-51
2022/08/21 07:31:28;;;;;;;;;;;;;;;23.22;51.81;95754.41;10323540;28;2370;-51
2022/08/21 07:36:29;;;;;;;;;;;;;;;23.22;51.69;95752.56;10322065;28;2476;-49
2022/08/21 07:41:29;;;;;;;;;;;;;;;23.21;51.18;95752.84;10320428;28;2018;-52
2022/08/21 07:46:30;;;;;;;;;;;;;;;23.09;51.27;95747.22;10322846;28;2372;-51
2022/08/21 07:51:38;;;;;;;;;;;;;;;23.04;51.09;95749.97;10318467;28;2370;-52
2022/08/21 07:56:48;;;;;;;;;;;;;;;23.01;50.89;95745.25;10321504;28;1917;-53
2022/08/21 08:01:50;;;;;;;;;;;;;;;22.98;51.00;95740.53;10322092;28;2372;-53
2022/08/21 08:06:55;;;;;;;;;;;;;;;22.95;50.93;95746.38;10321722;28;2347;-53
2022/08/21 08:12:05;;;;;;;;;;;;;;;22.97;50.91;95738.94;10322917;28;2443;-54
2022/08/21 08:17:15;;;;;;;;;;;;;;;22.95;50.37;95746.38;10321535;28;2248;-52
2022/08/21 08:22:19;;;;;;;;;;;;;;;22.93;50.25;95733.47;10319248;28;2351;-52
2022/08/21 08:27:22;;;;;;;;;;;;;;;22.93;50.21;95740.59;10322931;28;2338;-53
2022/08/21 08:32:32;;;;;;;;;;;;;;;22.95;50.07;95736.59;10325373;28;2383;-54
2022/08/21 08:37:37;;;;;;;;;;;;;;;22.96;50.09;95738.16;10330999;28;2391;-51
2022/08/21 08:42:37;;;;;;;;;;;;;;;22.97;50.06;95731.81;10326367;28;1973;-52
2022/08/21 08:47:44;;;;;;;;;;;;;;;22.98;49.85;95724.69;10328391;28;2369;-53
2022/08/21 08:52:46;;;;;;;;;;;;;;;22.96;50.10;95730.22;10324701;28;2355;-55
2022/08/21 08:57:47;;;;;;;;;;;;;;;22.97;50.07;95733.66;10323778;28;2116;-51
2022/08/21 09:02:48;;;;;;;;;;;;;;;22.99;50.93;95727.03;10324253;28;2297;-48
2022/08/21 09:07:51;;;;;;;;;;;;;;;22.97;50.86;95729.19;10323789;28;2316;-51
2022/08/21 09:12:57;;;;;;;;;;;;;;;23.04;51.32;95726.16;10328996;28;2310;-49
2022/08/21 09:18:01;;;;;;;;;;;;;;;23.03;51.23;95721.94;10327367;28;1985;-54
2022/08/21 09:23:04;;;;;;;;;;;;;;;22.98;51.55;95728.09;10327269;28;2225;-49
2022/08/21 09:28:07;;;;;;;;;;;;;;;22.99;51.78;95723.59;10326312;28;2336;-50
2022/08/21 09:33:09;;;;;;;;;;;;;;;22.98;51.61;95725.44;10325357;28;2301;-52
2022/08/21 09:38:09;;;;;;;;;;;;;;;22.98;51.66;95720.16;10327034;28;2464;-52
2022/08/21 09:43:12;;;;;;;;;;;;;;;22.95;51.73;95722.59;10323851;28;2384;-51
2022/08/21 09:48:18;;;;;;;;;;;;;;;22.94;52.40;95718.38;10327074;28;2300;-52
2022/08/21 09:53:20;;;;;;;;;;;;;;;23.03;52.76;95720.09;10325975;28;2276;-50
2022/08/21 09:58:20;;;;;;;;;;;;;;;23.11;53.00;95713.34;10326986;28;2264;-51
2022/08/21 10:03:20;;;;;;;;;;;;;;;23.11;53.06;95715.97;10325715;28;2284;-52
2022/08/21 10:08:21;;;;;;;;;;;;;;;23.13;52.63;95711.97;10325561;28;2392;-51
2022/08/21 10:13:28;;;;;;;;;;;;;;;23.18;52.65;95698.69;10323293;28;2308;-51
2022/08/21 10:18:37;;;;;;;;;;;;;;;23.26;52.91;95703.31;10325925;28;1924;-53
2022/08/21 10:23:56;;;;;;;;;;;;;;;23.28;52.87;95700.34;10326823;28;2343;-53
2022/08/21 10:29:02;;;;;;;;;;;;;;;23.13;52.88;95700.63;10324542;28;2325;-50
2022/08/21 10:34:21;;;;;;;;;;;;;;;23.01;52.63;95700.28;10324407;28;2347;-54
2022/08/21 10:39:25;;;;;;;;;;;;;;;22.99;52.96;95699.81;10325152;28;2309;-50
2022/08/21 10:44:43;;;;;;;;;;;;;;;23.07;53.42;95689.34;10324911;28;2347;-51
2022/08/21 10:49:47;;;;;;;;;;;;;;;23.15;53.13;95696.59;10325532;28;2428;-53
2022/08/21 10:54:47;;;;;;;;;;;;;;;23.21;53.38;95692.00;10322602;28;2408;-51
2022/08/21 10:59:49;;;;;;;;;;;;;;;23.26;52.55;95679.50;10324530;28;2326;-47
2022/08/21 11:04:54;;;;;;;;;;;;;;;23.29;52.76;95686.03;10319348;28;2321;-50
2022/08/21 11:09:55;;;;;;;;;;;;;;;23.35;52.11;95676.97;10323925;28;2302;-50
2022/08/21 11:14:57;;;;;;;;;;;;;;;23.37;52.13;95674.81;10322490;28;2319;-50
2022/08/21 11:20:12;;;;;;;;;;;;;;;23.38;51.41;95668.47;10324017;28;2320;-48
2022/08/21 11:25:17;;;;;;;;;;;;;;;23.43;51.90;95676.31;10320651;28;2300;-50
2022/08/21 11:30:18;;;;;;;;;;;;;;;23.37;51.14;95669.53;10321551;28;2347;-51
2022/08/21 11:35:33;;;;;;;;;;;;;;;23.31;50.54;95665.38;10323652;28;2261;-48
2022/08/21 11:40:56;;;;;;;;;;;;;;;23.25;49.36;95656.75;10319425;28;2447;-50
2022/08/21 11:46:03;;;;;;;;;;;;;;;23.22;49.09;95654.72;10317937;28;2319;-50
2022/08/21 11:51:05;;;;;;;;;;;;;;;23.25;49.67;95648.81;10318784;28;2125;-49
2022/08/21 11:56:08;;;;;;;;;;;;;;;23.32;48.84;95651.13;10313815;28;2465;-50
2022/08/21 12:01:09;;;;;;;;;;;;;;;23.36;49.17;95646.81;10322385;28;2371;-52
2022/08/21 12:06:11;;;;;;;;;;;;;;;23.32;47.86;95641.34;10323400;28;2280;-49
2022/08/21 12:11:17;;;;;;;;;;;;;;;23.39;48.04;95638.28;10324197;28;2306;-51
2022/08/21 12:16:28;;;;;;;;;;;;;;;23.39;47.40;95630.34;10319886;28;2320;-49
2022/08/21 12:21:28;;;;;;;;;;;;;;;23.48;48.20;95628.59;10319385;28;1917;-46
2022/08/21 12:26:33;;;;;;;;;;;;;;;23.48;48.21;95628.59;10319686;28;2345;-49
2022/08/21 12:31:33;;;;;;;;;;;;;;;23.40;46.19;95621.34;10317733;28;1906;-50
2022/08/21 12:37:00;;;;;;;;;;;;;;;23.49;47.15;95619.59;10321122;28;2345;-49
2022/08/21 12:42:00;;;;;;;;;;;;;;;23.48;46.87;95618.00;10321158;28;2339;-48
2022/08/21 12:47:05;;;;;;;;;;;;;;;23.39;45.85;95611.81;10322867;28;2284;-52
2022/08/21 12:52:09;;;;;;;;;;;;;;;23.30;44.71;95606.44;10321279;28;1957;-48
2022/08/21 12:57:17;;;;;;;;;;;;;;;23.31;45.67;95601.91;10321650;28;2171;-50
2022/08/21 13:02:18;;;;;;;;;;;;;;;23.31;46.59;95591.31;10321798;28;2356;-50
2022/08/21 13:07:29;;;;;;;;;;;;;;;23.35;46.75;95592.31;10319307;28;2273;-49
2022/08/21 13:12:30;;;;;;;;;;;;;;;23.35;46.08;95587.03;10319138;28;2460;-52
2022/08/21 13:17:31;;;;;;;;;;;;;;;23.40;46.46;95595.69;10322316;28;2386;-53
2022/08/21 13:22:31;;;;;;;;;;;;;;;23.39;45.81;95588.81;10322154;28;2340;-51
2022/08/21 13:27:32;;;;;;;;;;;;;;;23.38;45.23;95589.09;10328485;28;2288;-50
2022/08/21 13:32:33;;;;;;;;;;;;;;;23.43;45.42;95586.38;10324710;28;2392;-54
2022/08/21 13:37:33;;;;;;;;;;;;;;;23.40;45.02;95586.94;10325387;28;2264;-50
2022/08/21 13:42:33;;;;;;;;;;;;;;;23.44;45.60;95574.69;10323135;28;2466;-54
2022/08/21 13:47:33;;;;;;;;;;;;;;;23.51;46.02;95566.38;10326795;28;2312;-53
2022/08/21 13:52:34;;;;;;;;;;;;;;;23.51;46.36;95569.81;10323849;28;2413;-52
2022/08/21 13:57:35;;;;;;;;;;;;;;;23.47;44.98;95568.03;10324924;28;2026;-51
2022/08/21 14:02:37;;;;;;;;;;;;;;;23.51;45.79;95566.38;10324766;28;2297;-52
2022/08/21 14:07:38;;;;;;;;;;;;;;;23.52;45.58;95566.06;10307797;28;2352;-50
2022/08/21 14:12:43;;;;;;;;;;;;;;;23.50;45.35;95567.44;10324832;28;2340;-53
2022/08/21 14:17:43;;;;;;;;;;;;;;;23.56;45.69;95566.25;10320243;28;1905;-51
2022/08/21 14:22:45;;;;;;;;;;;;;;;23.55;45.42;95567.34;10323189;28;2348;-51
2022/08/21 14:28:04;;;;;;;;;;;;;;;23.49;44.87;95566.66;10323248;28;2335;-53
2022/08/21 14:33:04;;;;;;;;;;;;;;;23.52;45.56;95566.06;10325126;28;2388;-49
2022/08/21 14:38:14;;;;;;;;;;;;;;;23.54;45.81;95568.41;10326005;28;2384;-49
2022/08/21 14:43:14;;;;;;;;;;;;;;;23.53;45.50;95564.22;10326322;28;2273;-54
2022/08/21 14:48:14;;;;;;;;;;;;;;;23.51;45.48;95559.22;10325512;28;2354;-52
2022/08/21 14:53:16;;;;;;;;;;;;;;;23.49;45.13;95550.81;10325942;28;2441;-51
2022/08/21 14:58:16;;;;;;;;;;;;;;;23.49;45.29;95542.88;10324816;28;1870;-50
2022/08/21 15:03:16;;;;;;;;;;;;;;;23.50;45.09;95551.56;10324260;28;2340;-49
2022/08/21 15:08:17;;;;;;;;;;;;;;;23.46;44.35;95556.66;10321264;28;2320;-50
2022/08/21 15:13:17;;;;;;;;;;;;;;;23.40;43.68;95556.00;10317301;28;2347;-53
2022/08/21 15:18:21;;;;;;;;;;;;;;;23.37;43.54;95558.44;10320691;28;2465;-50
2022/08/21 15:23:21;;;;;;;;;;;;;;;23.39;43.83;95549.13;10319691;28;2218;-50
2022/08/21 15:28:21;;;;;;;;;;;;;;;23.41;44.11;95551.50;10322092;28;2258;-50
2022/08/21 15:33:22;;;;;;;;;;;;;;;23.39;43.18;95551.78;10318965;28;2328;-47
2022/08/21 15:38:22;;;;;;;;;;;;;;;23.37;43.37;95543.34;10317918;28;2347;-48
2022/08/21 15:43:35;;;;;;;;;;;;;;;23.41;43.90;95540.91;10319966;28;2331;-50
2022/08/21 15:48:35;;;;;;;;;;;;;;;23.39;43.88;95541.19;10305295;28;2289;-48
2022/08/21 15:53:38;;;;;;;;;;;;;;;23.41;43.40;95535.63;10322907;28;1975;-48
2022/08/21 15:58:38;;;;;;;;;;;;;;;23.39;43.22;95540.41;10322417;28;2315;-46
2022/08/21 16:03:38;;;;;;;;;;;;;;;23.36;42.15;95541.00;10321209;28;2360;-51
2022/08/21 16:08:39;;;;;;;;;;;;;;;23.32;42.46;95535.53;10323505;28;1897;-51
2022/08/21 16:13:42;;;;;;;;;;;;;;;23.31;42.53;95533.91;10321075;28;2511;-49
2022/08/21 16:18:42;;;;;;;;;;;;;;;23.32;42.05;95534.75;10320054;28;2329;-49
2022/08/21 16:23:43;;;;;;;;;;;;;;;23.28;41.67;95531.88;10322283;28;2332;-50
2022/08/21 16:28:45;;;;;;;;;;;;;;;23.27;41.40;95527.66;10323519;28;2347;-51
2022/08/21 16:33:48;;;;;;;;;;;;;;;23.27;41.61;95527.66;10321244;28;2837;-48
2022/08/21 16:38:49;;;;;;;;;;;;;;;23.27;41.06;95511.00;10323467;28;2364;-48
2022/08/21 16:43:49;;;;;;;;;;;;;;;23.26;41.38;95517.38;10323833;28;2300;-51
2022/08/21 16:48:49;;;;;;;;;;;;;;;23.27;41.51;95519.72;10320653;28;2323;-47
2022/08/21 16:53:50;;;;;;;;;;;;;;;23.26;41.64;95518.19;10328405;28;2289;-48
2022/08/21 16:58:51;;;;;;;;;;;;;;;23.25;41.54;95505.22;10326836;28;2331;-47
2022/08/21 17:03:52;;;;;;;;;;;;;;;23.25;41.41;95510.50;10329525;28;2340;-50
2022/08/21 17:08:52;;;;;;;;;;;;;;;23.20;41.37;95511.44;10327400;28;2473;-49
2022/08/21 17:13:52;;;;;;;;;;;;;;;23.25;41.65;95513.16;10327194;28;1942;-51
2022/08/21 17:18:53;;;;;;;;;;;;;;;23.28;41.68;95521.31;10325887;28;1984;-47
2022/08/21 17:23:53;;;;;;;;;;;;;;;23.28;41.87;95510.72;10329229;28;2335;-46
2022/08/21 17:28:53;;;;;;;;;;;;;;;23.27;41.18;95524.22;10325841;28;2356;-49
2022/08/21 17:33:53;;;;;;;;;;;;;;;23.24;40.79;95527.47;10326221;28;2356;-49
2022/08/21 17:38:54;;;;;;;;;;;;;;;23.21;41.30;95522.75;10333113;28;2399;-50
2022/08/21 17:43:54;;;;;;;;;;;;;;;23.17;41.36;95521.78;10329694;28;1890;-48
2022/08/21 17:48:55;;;;;;;;;;;;;;;23.15;41.71;95518.66;10327860;28;2303;-51
2022/08/21 17:53:56;;;;;;;;;;;;;;;23.14;42.93;95519.75;10325326;28;2343;-49
2022/08/21 17:58:56;;;;;;;;;;;;;;;23.16;43.14;95520.25;10326284;28;2298;-49
2022/08/21 18:03:56;;;;;;;;;;;;;;;23.17;43.90;95516.50;10324329;28;2411;-48
2022/08/21 18:08:56;;;;;;;;;;;;;;;23.17;44.12;95522.59;10326014;28;2396;-47
2022/08/21 18:13:59;;;;;;;;;;;;;;;23.15;44.02;95523.94;10325780;28;2343;-50
2022/08/21 18:19:00;;;;;;;;;;;;;;;23.14;44.34;95539.03;10326185;28;2417;-48
2022/08/21 18:24:00;;;;;;;;;;;;;;;23.18;45.36;95542.66;10319618;28;2295;-49
2022/08/21 18:29:01;;;;;;;;;;;;;;;23.22;46.54;95541.00;10308270;28;2321;-53
2022/08/21 18:34:02;;;;;;;;;;;;;;;23.20;46.26;95543.16;10326327;28;2331;-50
2022/08/21 18:39:02;;;;;;;;;;;;;;;23.19;46.10;95546.06;10324262;28;2356;-51
2022/08/21 18:44:02;;;;;;;;;;;;;;;23.18;46.84;95545.31;10321751;28;2339;-53
2022/08/21 18:49:03;;;;;;;;;;;;;;;23.19;46.52;95554.81;10320795;28;1889;-48
2022/08/21 18:54:03;;;;;;;;;;;;;;;23.18;47.10;95552.47;10318232;28;2293;-50
2022/08/21 18:59:03;;;;;;;;;;;;;;;23.18;47.40;95560.38;10320136;28;2269;-49
2022/08/21 19:04:05;;;;;;;;;;;;;;;23.16;47.18;95559.91;10320861;28;2276;-52
2022/08/21 19:09:06;;;;;;;;;;;;;;;23.14;47.67;95560.16;10318396;28;2293;-49
2022/08/21 19:14:08;;;;;;;;;;;;;;;23.07;46.18;95565.09;10313489;28;2344;-50
2022/08/21 19:19:09;;;;;;;;;;;;;;;23.06;47.09;95568.78;10320349;28;2217;-49
2022/08/21 19:24:09;;;;;;;;;;;;;;;23.11;47.90;95571.34;10318766;28;2386;-49
2022/08/21 19:29:09;;;;;;;;;;;;;;;23.13;48.07;95573.69;10315152;28;1936;-51
2022/08/21 19:34:09;;;;;;;;;;;;;;;23.12;48.02;95572.16;10316205;28;2328;-51
2022/08/21 19:39:10;;;;;;;;;;;;;;;23.13;47.72;95573.69;10320166;28;2379;-50
2022/08/21 19:44:14;;;;;;;;;;;;;;;23.14;48.00;95570.00;10320308;28;2324;-51
2022/08/21 19:49:15;;;;;;;;;;;;;;;23.17;48.26;95572.03;10318723;28;2273;-48
2022/08/21 19:54:20;;;;;;;;;;;;;;;23.20;48.77;95571.47;10317216;28;2404;-48
2022/08/21 19:59:21;;;;;;;;;;;;;;;23.21;47.91;95575.66;10318612;28;2233;-51
2022/08/21 20:04:23;;;;;;;;;;;;;;;23.20;48.65;95564.31;10321248;28;1962;-50
2022/08/21 20:09:23;;;;;;;;;;;;;;;23.20;48.44;95563.53;10322732;28;2321;-46
2022/08/21 20:14:24;;;;;;;;;;;;;;;23.17;48.74;95562.25;10322491;28;2427;-51
2022/08/21 20:19:24;;;;;;;;;;;;;;;23.17;48.59;95564.09;10321642;28;1992;-51
2022/08/21 20:24:25;;;;;;;;;;;;;;;23.15;48.76;95555.69;10323305;28;2727;-51
2022/08/21 20:29:25;;;;;;;;;;;;;;;23.13;48.51;95563.91;10320023;28;2623;-50
2022/08/21 20:34:26;;;;;;;;;;;;;;;23.12;48.57;95562.31;10314018;28;2701;-49
2022/08/21 20:39:26;;;;;;;;;;;;;;;23.10;48.80;95559.19;10320843;28;2161;-50
2022/08/21 20:44:28;;;;;;;;;;;;;;;23.11;48.86;95555.50;10322382;28;2594;-52
2022/08/21 20:49:30;;;;;;;;;;;;;;;23.10;49.21;95555.78;10315385;28;2631;-49
2022/08/21 20:54:44;;;;;;;;;;;;;;;23.09;48.45;95560.28;10320727;28;2605;-51
2022/08/21 20:59:49;;;;;;;;;;;;;;;23.09;48.66;95560.28;10319363;28;2562;-49
2022/08/21 21:04:52;;;;;;;;;;;;;;;23.10;48.39;95553.91;10318578;28;2688;-50
2022/08/21 21:09:54;;;;;;;;;;;;;;;23.10;48.18;95553.16;10316792;28;2167;-52
2022/08/21 21:14:54;;;;;;;;;;;;;;;23.10;48.75;95555.78;10318217;28;2615;-51
2022/08/21 21:19:56;;;;;;;;;;;;;;;23.10;48.42;95553.16;10318670;28;2643;-49
2022/08/21 21:25:14;;;;;;;;;;;;;;;23.10;48.50;95555.78;10318947;28;2155;-49
2022/08/21 21:30:38;;;;;;;;;;;;;;;23.10;48.22;95559.19;10300392;28;2717;-48
2022/08/21 21:35:40;;;;;;;;;;;;;;;23.10;48.31;95553.91;10310348;28;2635;-48
2022/08/21 21:40:47;;;;;;;;;;;;;;;23.09;48.20;95557.66;10326435;28;2612;-51
2022/08/21 21:45:56;;;;;;;;;;;;;;;23.08;48.86;95560.59;10324302;28;2677;-50
2022/08/21 21:50:58;;;;;;;;;;;;;;;23.07;48.92;95565.09;10324420;28;2639;-52
2022/08/21 21:56:01;;;;;;;;;;;;;;;23.05;49.17;95558.50;10327410;28;2576;-49
2022/08/21 22:01:11;;;;;;;;;;;;;;;23.07;49.13;95562.44;10326862;28;2176;-50
2022/08/21 22:06:12;;;;;;;;;;;;;;;23.05;48.68;95569.88;10341925;28;2563;-49
2022/08/21 22:11:12;;;;;;;;;;;;;;;23.03;48.62;95560.66;10322794;28;2630;-51
2022/08/21 22:16:13;;;;;;;;;;;;;;;23.03;48.93;95558.03;10326951;28;2150;-51
2022/08/21 22:21:15;;;;;;;;;;;;;;;23.01;48.83;95549.59;10325078;28;2636;-51
2022/08/21 22:26:17;;;;;;;;;;;;;;;23.00;48.98;95550.69;10340659;28;2611;-49
2022/08/21 22:31:19;;;;;;;;;;;;;;;22.99;48.95;95554.41;10319227;28;2152;-48
2022/08/21 22:36:20;;;;;;;;;;;;;;;22.98;48.79;95560.78;10328996;28;2645;-49
2022/08/21 22:41:25;;;;;;;;;;;;;;;22.97;49.16;95554.72;10326400;28;2575;-53
2022/08/21 22:46:33;;;;;;;;;;;;;;;22.96;48.94;95558.41;10326861;28;2536;-52
2022/08/21 22:51:38;;;;;;;;;;;;;;;22.96;49.04;95558.41;10322409;28;2545;-48
2022/08/21 22:56:42;;;;;;;;;;;;;;;22.93;48.92;95553.72;10324207;28;2113;-50
2022/08/21 23:01:43;;;;;;;;;;;;;;;22.95;48.88;95551.56;10325109;28;2681;-48
2022/08/21 23:06:50;;;;;;;;;;;;;;;22.92;48.96;95557.44;10323384;28;2664;-49
2022/08/21 23:11:50;;;;;;;;;;;;;;;22.93;48.88;95551.09;10325586;28;2547;-51
2022/08/21 23:16:58;;;;;;;;;;;;;;;22.91;48.85;95545.31;10320457;28;2597;-46
2022/08/21 23:21:58;;;;;;;;;;;;;;;22.91;48.82;95544.50;10322395;28;2712;-49
2022/08/21 23:26:59;;;;;;;;;;;;;;;22.89;49.16;95541.38;10321298;28;2789;-47
2022/08/21 23:32:08;;;;;;;;;;;;;;;22.89;48.93;95551.94;10323465;28;2269;-52
2022/08/21 23:42:48;;;;;;;;;;;;;;;22.89;49.68;95539.53;10320760;28;2714;-47
2022/08/21 23:48:02;;;;;;;;;;;;;;;22.90;49.25;95545.56;10319612;28;2634;-50
2022/08/21 23:53:23;;;;;;;;;;;;;;;22.89;49.13;95541.38;10321927;28;2692;-49
2022/08/21 23:58:26;;;;;;;;;;;;;;;22.89;49.07;95538.75;10289283;28;2755;-53
